createdAt,value
2023-05-12T00:01:09.315Z,6.85
2023-05-12T00:03:39.051Z,6.25
2023-05-12T00:06:07.848Z,7.20
2023-05-12T00:08:35.873Z,5.43
2023-05-12T00:11:04.109Z,6.97
2023-05-12T00:13:32.208Z,6.43
2023-05-12T00:16:00.257Z,6.22
2023-05-12T00:18:28.745Z,6.80
2023-05-12T00:20:56.998Z,5.40
2023-05-12T00:23:26.408Z,6.25
2023-05-12T00:25:54.267Z,5.90
2023-05-12T00:28:22.420Z,5.82
2023-05-12T00:30:50.580Z,6.80
2023-05-12T00:33:18.598Z,6.55
2023-05-12T00:35:46.724Z,5.50
2023-05-12T00:38:14.911Z,6.95
2023-05-12T00:40:42.963Z,5.85
2023-05-12T00:43:11.709Z,7.10
2023-05-12T00:45:39.965Z,6.82
2023-05-12T00:48:08.686Z,7.60
2023-05-12T00:50:37.103Z,6.55
2023-05-12T00:53:06.625Z,8.25
2023-05-12T00:55:34.604Z,5.80
2023-05-12T00:58:03.656Z,6.60
2023-05-12T01:00:32.364Z,7.15
2023-05-12T01:03:00.665Z,6.38
2023-05-12T01:05:42.666Z,5.65
2023-05-12T01:08:12.951Z,7.43
2023-05-12T01:10:45.050Z,6.43
2023-05-12T01:13:14.267Z,6.55
2023-05-12T01:15:47.048Z,5.80
2023-05-12T01:18:21.768Z,6.13
2023-05-12T01:20:51.317Z,6.60
2023-05-12T01:23:24.163Z,6.78
2023-05-12T01:25:55.253Z,5.97
2023-05-12T01:28:23.597Z,6.25
2023-05-12T01:30:51.800Z,6.05
2023-05-12T01:33:20.908Z,7.10
2023-05-12T01:35:48.820Z,6.38
2023-05-12T01:38:16.989Z,5.38
2023-05-12T01:40:45.272Z,6.28
2023-05-12T01:43:13.248Z,6.78
2023-05-12T01:45:41.202Z,6.30
2023-05-12T01:48:10.783Z,7.03
2023-05-12T01:50:39.273Z,6.75
2023-05-12T01:53:12.802Z,6.80
2023-05-12T01:55:41.033Z,6.63
2023-05-12T01:58:08.969Z,7.65
2023-05-12T02:00:37.231Z,6.32
2023-05-12T02:03:07.790Z,7.43
2023-05-12T02:05:35.806Z,6.40
2023-05-12T02:08:05.084Z,6.63
2023-05-12T02:10:33.493Z,5.43
2023-05-12T02:13:01.628Z,6.85
2023-05-12T02:15:31.454Z,7.13
2023-05-12T02:17:59.509Z,6.50
2023-05-12T02:20:30.583Z,6.53
2023-05-12T02:23:01.143Z,7.60
2023-05-12T02:25:32.681Z,6.85
2023-05-12T02:28:01.025Z,8.10
2023-05-12T02:30:29.201Z,7.22
2023-05-12T02:32:57.385Z,7.60
2023-05-12T02:35:25.505Z,7.82
2023-05-12T02:37:54.115Z,8.07
2023-05-12T02:40:22.470Z,6.45
2023-05-12T02:42:50.524Z,6.45
2023-05-12T02:45:18.680Z,5.60
2023-05-12T02:47:46.634Z,6.00
2023-05-12T02:50:15.388Z,5.85
2023-05-12T02:52:44.400Z,6.63
2023-05-12T02:55:12.536Z,6.88
2023-05-12T02:57:41.569Z,5.82
2023-05-12T03:00:10.847Z,7.57
2023-05-12T03:02:51.153Z,5.40
2023-05-12T03:05:19.542Z,6.25
2023-05-12T03:07:49.732Z,6.50
2023-05-12T03:10:19.193Z,6.93
2023-05-12T03:12:48.179Z,6.13
2023-05-12T03:15:16.760Z,7.30
2023-05-12T03:17:44.727Z,6.57
2023-05-12T03:20:13.532Z,7.32
2023-05-12T03:22:41.652Z,5.88
2023-05-12T03:25:11.650Z,7.47
2023-05-12T03:27:41.247Z,6.15
2023-05-12T03:30:11.130Z,7.10
2023-05-12T03:32:39.791Z,5.43
2023-05-12T03:35:11.702Z,6.63
2023-05-12T03:37:40.662Z,6.47
2023-05-12T03:40:13.119Z,7.10
2023-05-12T03:42:41.409Z,5.63
2023-05-12T03:45:10.482Z,7.10
2023-05-12T03:47:40.848Z,5.60
2023-05-12T03:50:10.470Z,6.05
2023-05-12T03:52:41.353Z,5.30
2023-05-12T03:55:10.561Z,5.65
2023-05-12T03:57:38.920Z,5.93
2023-05-12T04:00:08.095Z,6.68
2023-05-12T04:02:46.732Z,6.20
2023-05-12T04:05:15.566Z,4.93
2023-05-12T04:07:43.532Z,5.47
2023-05-12T04:10:13.212Z,6.30
2023-05-12T04:12:41.545Z,5.60
2023-05-12T04:15:10.964Z,7.00
2023-05-12T04:17:39.182Z,5.60
2023-05-12T04:20:08.650Z,6.47
2023-05-12T04:22:36.923Z,5.95
2023-05-12T04:25:05.909Z,7.47
2023-05-12T04:27:33.977Z,5.57
2023-05-12T04:30:02.814Z,5.90
2023-05-12T04:32:36.500Z,4.45
2023-05-12T04:35:05.331Z,3.67
2023-05-12T04:37:33.820Z,3.00
2023-05-12T04:40:03.137Z,3.05
2023-05-12T04:42:31.834Z,3.60
2023-05-12T04:45:00.065Z,3.30
2023-05-12T04:47:29.451Z,3.35
2023-05-12T04:49:57.875Z,3.10
2023-05-12T04:52:26.378Z,3.42
2023-05-12T04:54:55.029Z,3.25
2023-05-12T04:57:23.626Z,3.15
2023-05-12T04:59:52.271Z,3.03
2023-05-12T05:02:21.133Z,3.03
2023-05-12T05:04:50.296Z,3.25
2023-05-12T05:07:18.560Z,3.10
2023-05-12T05:09:46.613Z,3.33
2023-05-12T05:12:14.711Z,3.17
2023-05-12T05:14:43.936Z,3.13
2023-05-12T05:17:13.664Z,3.08
2023-05-12T05:19:54.943Z,3.33
2023-05-12T05:22:27.494Z,3.50
2023-05-12T05:24:56.390Z,3.30
2023-05-12T05:27:24.889Z,3.35
2023-05-12T05:29:54.503Z,3.25
2023-05-12T05:32:22.809Z,3.20
2023-05-12T05:34:51.029Z,2.58
2023-05-12T05:37:20.858Z,3.22
2023-05-12T05:39:48.745Z,2.80
2023-05-12T05:42:17.413Z,3.42
2023-05-12T05:44:45.786Z,3.15
2023-05-12T05:47:14.871Z,3.00
2023-05-12T05:49:43.213Z,3.45
2023-05-12T05:52:12.227Z,3.38
2023-05-12T05:54:40.389Z,3.60
2023-05-12T05:57:08.708Z,3.40
2023-05-12T05:59:37.158Z,2.72
2023-05-12T06:02:06.674Z,2.95
2023-05-12T06:04:35.850Z,3.55
2023-05-12T06:07:04.068Z,2.30
2023-05-12T06:09:32.509Z,3.60
2023-05-12T06:12:00.620Z,2.58
2023-05-12T06:14:28.735Z,2.80
2023-05-12T06:16:57.307Z,2.72
2023-05-12T06:19:25.945Z,3.05
2023-05-12T06:21:54.074Z,3.00
2023-05-12T06:24:22.074Z,2.20
2023-05-12T06:26:50.396Z,2.70
2023-05-12T06:29:18.883Z,2.53
2023-05-12T06:31:47.226Z,2.70
2023-05-12T06:34:17.273Z,2.65
2023-05-12T06:36:45.600Z,3.30
2023-05-12T06:39:13.903Z,2.47
2023-05-12T06:41:42.232Z,2.03
2023-05-12T06:44:20.757Z,2.40
2023-05-12T06:46:53.732Z,2.63
2023-05-12T06:49:21.901Z,2.42
2023-05-12T06:51:49.952Z,2.30
2023-05-12T06:54:18.036Z,2.17
2023-05-12T06:56:46.272Z,2.40
2023-05-12T06:59:14.472Z,2.30
2023-05-12T07:01:43.286Z,2.35
2023-05-12T07:04:11.648Z,2.20
2023-05-12T07:06:39.643Z,2.03
2023-05-12T07:09:07.732Z,2.40
2023-05-12T07:11:35.954Z,1.98
2023-05-12T07:14:04.065Z,2.20
2023-05-12T07:16:32.986Z,2.30
2023-05-12T07:19:01.133Z,2.13
2023-05-12T07:21:29.888Z,1.88
2023-05-12T07:23:58.076Z,1.92
2023-05-12T07:26:26.968Z,2.95
2023-05-12T07:28:55.445Z,1.80
2023-05-12T07:31:23.628Z,2.25
2023-05-12T07:33:51.976Z,1.73
2023-05-12T07:36:21.850Z,2.40
2023-05-12T07:38:50.410Z,2.08
2023-05-12T07:41:19.160Z,2.35
2023-05-12T07:43:47.334Z,1.95
2023-05-12T07:46:15.569Z,1.90
2023-05-12T07:48:44.100Z,1.90
2023-05-12T07:51:12.185Z,1.98
2023-05-12T07:53:40.985Z,2.30
2023-05-12T07:56:09.003Z,1.70
2023-05-12T07:58:37.414Z,1.67
2023-05-12T08:01:06.922Z,1.65
2023-05-12T08:03:36.463Z,2.08
2023-05-12T08:06:07.438Z,1.70
2023-05-12T08:08:36.673Z,1.92
2023-05-12T08:11:05.027Z,1.73
2023-05-12T08:13:33.113Z,2.08
2023-05-12T08:16:01.553Z,1.80
2023-05-12T08:18:29.804Z,2.08
2023-05-12T08:20:57.963Z,2.05
2023-05-12T08:23:26.206Z,2.03
2023-05-12T08:25:54.903Z,2.33
2023-05-12T08:28:23.050Z,1.70
2023-05-12T08:30:51.557Z,1.90
2023-05-12T08:33:19.833Z,1.50
2023-05-12T08:35:48.023Z,1.70
2023-05-12T08:38:17.005Z,1.92
2023-05-12T08:41:18.128Z,2.00
2023-05-12T08:43:51.782Z,1.45
2023-05-12T08:46:21.342Z,1.55
2023-05-12T08:48:52.560Z,1.80
2023-05-12T08:51:23.270Z,1.80
2023-05-12T08:53:53.541Z,2.10
2023-05-12T08:58:56.535Z,2.17
2023-05-12T09:01:26.279Z,2.10
2023-05-12T09:03:54.661Z,1.88
2023-05-12T09:06:22.855Z,2.58
2023-05-12T09:08:51.426Z,2.05
2023-05-12T09:11:22.101Z,2.80
2023-05-12T09:14:08.866Z,1.83
2023-05-12T09:16:45.563Z,2.30
2023-05-12T09:19:18.781Z,2.35
2023-05-12T09:21:47.949Z,1.98
2023-05-12T09:24:16.253Z,2.10
2023-05-12T09:26:56.105Z,2.13
2023-05-12T09:29:31.846Z,2.25
2023-05-12T09:32:04.365Z,2.35
2023-05-12T09:34:37.222Z,2.22
2023-05-12T09:37:07.328Z,2.50
2023-05-12T09:39:36.824Z,1.92
2023-05-12T09:42:12.430Z,1.80
2023-05-12T09:44:41.462Z,3.10
2023-05-12T09:47:10.712Z,2.55
2023-05-12T09:49:38.893Z,3.17
2023-05-12T09:52:07.007Z,2.45
2023-05-12T09:54:35.115Z,2.30
2023-05-12T09:57:07.545Z,2.75
2023-05-12T09:59:39.016Z,2.10
2023-05-12T10:02:09.936Z,2.40
2023-05-12T10:04:49.358Z,2.42
2023-05-12T10:07:18.896Z,2.40
2023-05-12T10:09:49.214Z,1.88
2023-05-12T10:12:17.851Z,2.00
2023-05-12T10:14:47.899Z,1.42
2023-05-12T10:17:17.164Z,1.92
2023-05-12T10:19:46.949Z,3.17
2023-05-12T10:22:17.357Z,3.63
2023-05-12T10:24:47.166Z,2.67
2023-05-12T10:27:17.338Z,2.03
2023-05-12T10:29:46.978Z,1.83
2023-05-12T10:32:15.717Z,2.25
2023-05-12T10:34:44.341Z,1.83
2023-05-12T10:37:13.184Z,2.65
2023-05-12T10:39:49.938Z,2.47
2023-05-12T10:42:26.985Z,2.80
2023-05-12T10:44:56.918Z,2.25
2023-05-12T10:47:38.071Z,1.60
2023-05-12T10:50:07.974Z,2.13
2023-05-12T10:52:36.149Z,1.85
2023-05-12T10:55:05.396Z,2.60
2023-05-12T10:57:34.666Z,2.30
2023-05-12T11:00:04.964Z,2.20
2023-05-12T11:02:36.992Z,2.05
2023-05-12T11:05:13.081Z,2.10
2023-05-12T11:07:50.765Z,2.10
2023-05-12T11:10:20.354Z,1.83
2023-05-12T11:12:50.845Z,2.17
2023-05-12T11:15:19.351Z,1.90
2023-05-12T11:17:48.393Z,1.55
2023-05-12T11:20:25.416Z,2.08
2023-05-12T11:22:54.950Z,2.20
2023-05-12T11:25:23.505Z,1.85
2023-05-12T11:27:52.338Z,1.70
2023-05-12T11:30:20.549Z,2.10
2023-05-12T11:32:49.117Z,1.88
2023-05-12T11:35:19.966Z,2.17
2023-05-12T11:37:48.378Z,1.77
2023-05-12T11:40:21.999Z,1.60
2023-05-12T11:42:53.073Z,1.70
2023-05-12T11:45:25.031Z,1.60
2023-05-12T11:48:05.242Z,1.95
2023-05-12T11:50:33.559Z,1.80
2023-05-12T11:53:01.856Z,2.55
2023-05-12T11:55:30.907Z,1.95
2023-05-12T11:58:03.809Z,2.55
2023-05-12T12:00:35.998Z,2.08
2023-05-12T12:03:12.857Z,1.60
2023-05-12T12:05:45.744Z,1.80
2023-05-12T12:08:16.418Z,1.70
2023-05-12T12:10:47.809Z,1.88
2023-05-12T12:15:53.819Z,1.48
2023-05-12T12:18:22.202Z,1.83
2023-05-12T12:20:50.684Z,1.85
2023-05-12T12:23:19.607Z,1.92
2023-05-12T12:25:47.675Z,2.30
2023-05-12T12:28:16.131Z,1.80
2023-05-12T12:30:44.845Z,2.00
2023-05-12T12:33:13.149Z,3.42
2023-05-12T12:35:41.915Z,2.10
2023-05-12T12:38:10.835Z,3.08
2023-05-12T12:40:38.795Z,2.78
2023-05-12T12:43:07.354Z,3.10
2023-05-12T12:45:36.531Z,2.80
2023-05-12T12:48:07.177Z,2.50
2023-05-12T12:50:37.740Z,2.23
2023-05-12T12:53:06.732Z,3.08
2023-05-12T12:55:34.759Z,2.58
2023-05-12T12:58:03.551Z,3.25
2023-05-12T13:00:31.923Z,3.05
2023-05-12T13:03:00.813Z,4.13
2023-05-12T13:05:29.971Z,2.85
2023-05-12T13:07:58.194Z,2.45
2023-05-12T13:10:27.011Z,2.88
2023-05-12T13:12:55.259Z,2.60
2023-05-12T13:15:23.840Z,2.55
2023-05-12T13:17:52.436Z,3.00
2023-05-12T13:20:20.771Z,3.47
2023-05-12T13:22:49.723Z,3.05
2023-05-12T13:25:17.838Z,3.00
2023-05-12T13:27:45.991Z,3.20
2023-05-12T13:30:14.263Z,2.70
2023-05-12T13:32:43.637Z,2.63
2023-05-12T13:35:11.855Z,3.08
2023-05-12T13:37:39.967Z,2.47
2023-05-12T13:40:09.420Z,3.38
2023-05-12T13:42:37.901Z,2.70
2023-05-12T13:45:07.133Z,2.65
2023-05-12T13:47:36.185Z,2.60
2023-05-12T13:50:05.358Z,1.58
2023-05-12T13:52:33.848Z,1.60
2023-05-12T13:55:01.841Z,1.30
2023-05-12T13:57:30.125Z,1.33
2023-05-12T13:59:58.614Z,1.58
2023-05-12T14:02:27.199Z,1.58
2023-05-12T14:04:56.662Z,1.60
2023-05-12T14:07:25.482Z,1.63
2023-05-12T14:09:53.759Z,1.40
2023-05-12T14:12:22.582Z,1.88
2023-05-12T14:14:50.708Z,1.83
2023-05-12T14:17:18.792Z,1.88
2023-05-12T14:19:46.970Z,1.40
2023-05-12T14:22:25.444Z,1.55
2023-05-12T14:24:55.893Z,1.60
2023-05-12T14:27:24.215Z,2.10
2023-05-12T14:29:52.197Z,1.73
2023-05-12T14:32:20.529Z,2.05
2023-05-12T14:34:48.457Z,2.67
2023-05-12T14:37:16.417Z,3.05
2023-05-12T14:39:44.793Z,3.83
2023-05-12T14:42:12.938Z,1.88
2023-05-12T14:44:41.126Z,3.60
2023-05-12T14:47:09.524Z,2.10
2023-05-12T14:49:37.538Z,2.50
2023-05-12T14:52:06.866Z,2.72
2023-05-12T14:54:34.986Z,2.65
2023-05-12T14:57:04.134Z,2.83
2023-05-12T14:59:32.186Z,1.70
2023-05-12T15:02:00.379Z,1.80
2023-05-12T15:04:28.544Z,1.00
2023-05-12T15:06:56.554Z,1.92
2023-05-12T15:09:24.667Z,2.08
2023-05-12T15:11:52.803Z,1.63
2023-05-12T15:14:20.816Z,2.08
2023-05-12T15:16:49.323Z,2.10
2023-05-12T15:19:17.764Z,2.28
2023-05-12T15:21:45.844Z,2.40
2023-05-12T15:24:14.010Z,1.77
2023-05-12T15:26:42.093Z,1.80
2023-05-12T15:29:10.125Z,2.17
2023-05-12T15:31:38.392Z,2.38
2023-05-12T15:34:07.336Z,2.42
2023-05-12T15:36:35.469Z,1.42
2023-05-12T15:39:04.317Z,2.58
2023-05-12T15:41:32.893Z,2.00
2023-05-12T15:44:00.894Z,2.55
2023-05-12T15:46:29.415Z,1.85
2023-05-12T15:48:58.595Z,2.13
2023-05-12T15:51:27.118Z,3.13
2023-05-12T15:53:55.786Z,4.30
2023-05-12T15:56:24.044Z,2.72
2023-05-12T15:58:52.890Z,1.92
2023-05-12T16:01:21.408Z,2.55
2023-05-12T16:03:54.186Z,3.63
2023-05-12T16:06:22.673Z,3.17
2023-05-12T16:08:50.877Z,2.65
2023-05-12T16:11:19.117Z,2.45
2023-05-12T16:13:47.345Z,2.10
2023-05-12T16:16:16.045Z,1.98
2023-05-12T16:18:44.219Z,2.38
2023-05-12T16:21:12.961Z,2.45
2023-05-12T16:23:41.317Z,2.30
2023-05-12T16:26:09.855Z,2.58
2023-05-12T16:28:37.894Z,3.03
2023-05-12T16:31:05.972Z,4.25
2023-05-12T16:33:34.327Z,3.22
2023-05-12T16:36:02.580Z,4.35
2023-05-12T16:38:32.490Z,4.07
2023-05-12T16:41:00.968Z,5.13
2023-05-12T16:43:28.970Z,3.85
2023-05-12T16:46:03.305Z,3.55
2023-05-12T16:48:34.892Z,2.72
2023-05-12T16:51:11.507Z,5.57
2023-05-12T16:53:40.477Z,3.17
2023-05-12T16:56:08.837Z,6.05
2023-05-12T16:58:37.732Z,3.97
2023-05-12T17:01:06.048Z,2.25
2023-05-12T17:03:34.430Z,2.28
2023-05-12T17:06:02.537Z,2.22
2023-05-12T17:08:30.854Z,2.17
2023-05-12T17:10:58.733Z,2.13
2023-05-12T17:13:27.197Z,2.03
2023-05-12T17:15:55.217Z,2.40
2023-05-12T17:18:24.926Z,2.53
2023-05-12T17:20:53.174Z,2.00
2023-05-12T17:23:21.842Z,2.95
2023-05-12T17:25:49.954Z,2.10
2023-05-12T17:28:18.119Z,5.78
2023-05-12T17:30:46.696Z,2.70
2023-05-12T17:33:16.626Z,2.65
2023-05-12T17:35:53.592Z,2.35
2023-05-12T17:38:31.801Z,2.70
2023-05-12T17:41:00.957Z,2.90
2023-05-12T17:43:30.049Z,2.30
2023-05-12T17:45:58.689Z,2.67
2023-05-12T17:48:27.249Z,2.80
2023-05-12T17:50:55.397Z,2.60
2023-05-12T17:53:23.570Z,2.53
2023-05-12T17:55:53.047Z,2.70
2023-05-12T17:58:21.303Z,3.10
2023-05-12T18:00:49.731Z,2.80
2023-05-12T18:03:23.499Z,2.92
2023-05-12T18:05:54.237Z,2.75
2023-05-12T18:08:22.569Z,2.60
2023-05-12T18:10:51.246Z,2.97
2023-05-12T18:13:19.617Z,3.53
2023-05-12T18:15:50.306Z,2.67
2023-05-12T18:18:19.257Z,3.20
2023-05-12T18:20:48.806Z,3.35
2023-05-12T18:23:18.603Z,3.15
2023-05-12T18:25:48.363Z,3.20
2023-05-12T18:28:16.776Z,3.22
2023-05-12T18:30:45.547Z,2.90
2023-05-12T18:33:14.239Z,3.17
2023-05-12T18:35:43.234Z,3.17
2023-05-12T18:38:11.587Z,4.13
2023-05-12T18:40:39.708Z,3.95
2023-05-12T18:43:08.324Z,4.97
2023-05-12T18:45:37.808Z,3.38
2023-05-12T18:48:07.245Z,3.60
2023-05-12T18:50:36.952Z,4.00
2023-05-12T18:53:05.999Z,4.15
2023-05-12T18:55:35.763Z,4.63
2023-05-12T18:58:05.484Z,4.30
2023-05-12T19:00:36.063Z,4.15
2023-05-12T19:03:06.261Z,4.63
2023-05-12T19:05:36.221Z,4.82
2023-05-12T19:08:05.406Z,5.13
2023-05-12T19:10:36.651Z,4.82
2023-05-12T19:13:06.772Z,4.75
2023-05-12T19:15:35.830Z,5.10
2023-05-12T19:18:04.799Z,4.35
2023-05-12T19:20:33.745Z,4.30
2023-05-12T19:23:02.073Z,5.03
2023-05-12T19:25:31.171Z,4.93
2023-05-12T19:28:00.356Z,4.60
2023-05-12T19:30:29.593Z,4.82
2023-05-12T19:32:59.378Z,5.13
2023-05-12T19:35:28.013Z,5.25
2023-05-12T19:37:58.080Z,5.60
2023-05-12T19:40:26.318Z,5.03
2023-05-12T19:42:55.360Z,5.20
2023-05-12T19:45:23.760Z,5.65
2023-05-12T19:47:52.039Z,5.03
2023-05-12T19:50:21.363Z,4.70
2023-05-12T19:52:50.833Z,7.75
2023-05-12T19:55:19.891Z,8.07
2023-05-12T19:57:49.317Z,6.95
2023-05-12T20:00:17.962Z,7.10
2023-05-12T20:02:46.569Z,7.05
2023-05-12T20:05:15.103Z,6.60
2023-05-12T20:07:43.517Z,8.15
2023-05-12T20:10:11.975Z,7.15
2023-05-12T20:12:44.983Z,6.68
2023-05-12T20:15:14.938Z,6.38
2023-05-12T20:17:43.756Z,7.40
2023-05-12T20:20:12.641Z,6.28
2023-05-12T20:22:41.277Z,7.22
2023-05-12T20:25:12.565Z,8.05
2023-05-12T20:27:40.998Z,7.93
2023-05-12T20:30:10.687Z,8.15
2023-05-12T20:32:39.148Z,8.73
2023-05-12T20:35:08.038Z,8.38
2023-05-12T20:37:36.770Z,8.65
2023-05-12T20:40:07.350Z,7.75
2023-05-12T20:42:36.072Z,7.07
2023-05-12T20:45:05.052Z,7.75
2023-05-12T20:47:35.171Z,5.88
2023-05-12T20:50:05.825Z,6.47
2023-05-12T20:52:38.533Z,6.68
2023-05-12T20:55:07.772Z,6.47
2023-05-12T20:57:36.128Z,7.25
2023-05-12T21:00:04.796Z,7.80
2023-05-12T21:02:33.048Z,8.00
2023-05-12T21:05:01.523Z,8.35
2023-05-12T21:07:31.678Z,8.68
2023-05-12T21:10:00.834Z,8.45
2023-05-12T21:12:29.437Z,7.82
2023-05-12T21:14:57.778Z,7.15
2023-05-12T21:17:26.085Z,7.13
2023-05-12T21:19:54.386Z,6.63
2023-05-12T21:22:22.869Z,6.90
2023-05-12T21:24:51.784Z,7.20
2023-05-12T21:27:19.880Z,8.75
2023-05-12T21:29:48.044Z,7.82
2023-05-12T21:32:17.025Z,7.40
2023-05-12T21:34:48.090Z,6.88
2023-05-12T21:37:17.531Z,6.20
2023-05-12T21:39:45.739Z,6.65
2023-05-12T21:42:13.829Z,7.07
2023-05-12T21:44:42.112Z,6.50
2023-05-12T21:47:10.209Z,7.32
2023-05-12T21:49:38.462Z,6.28
2023-05-12T21:52:06.712Z,7.22
2023-05-12T21:54:34.901Z,6.38
2023-05-12T21:57:03.116Z,5.90
2023-05-12T21:59:31.279Z,6.80
2023-05-12T22:02:00.365Z,6.45
2023-05-12T22:04:28.410Z,6.38
2023-05-12T22:06:56.774Z,6.88
2023-05-12T22:09:25.392Z,6.70
2023-05-12T22:11:53.694Z,6.53
2023-05-12T22:14:22.076Z,6.65
2023-05-12T22:16:50.223Z,6.03
2023-05-12T22:19:18.486Z,6.47
2023-05-12T22:21:47.090Z,6.93
2023-05-12T22:24:15.840Z,6.25
2023-05-12T22:26:43.866Z,6.63
2023-05-12T22:29:12.030Z,6.40
2023-05-12T22:31:40.130Z,6.95
2023-05-12T22:34:09.344Z,7.57
2023-05-12T22:36:38.065Z,6.57
2023-05-12T22:39:06.128Z,7.55
2023-05-12T22:41:34.147Z,7.63
2023-05-12T22:44:02.394Z,9.10
2023-05-12T22:46:30.534Z,8.48
2023-05-12T22:48:58.504Z,8.93
2023-05-12T22:51:26.892Z,8.95
2023-05-12T22:53:55.121Z,8.07
2023-05-12T22:56:23.244Z,8.65
2023-05-12T22:58:51.731Z,8.68
2023-05-12T23:01:19.739Z,8.68
2023-05-12T23:03:48.135Z,8.55
2023-05-12T23:06:16.510Z,7.95
2023-05-12T23:08:45.378Z,7.30
2023-05-12T23:11:13.336Z,7.68
2023-05-12T23:13:41.770Z,7.85
2023-05-12T23:16:09.861Z,7.75
2023-05-12T23:18:37.940Z,8.40
2023-05-12T23:21:06.273Z,7.85
2023-05-12T23:23:34.368Z,7.60
2023-05-12T23:26:02.904Z,8.80
2023-05-12T23:28:31.252Z,7.95
2023-05-12T23:30:59.370Z,8.68
2023-05-12T23:33:27.442Z,7.75
2023-05-12T23:35:55.814Z,8.77
2023-05-12T23:38:23.803Z,8.73
2023-05-12T23:40:52.395Z,7.70
2023-05-12T23:43:20.506Z,8.07
2023-05-12T23:45:48.743Z,8.68
2023-05-12T23:48:16.797Z,8.38
2023-05-12T23:50:45.182Z,8.60
2023-05-12T23:53:13.490Z,8.07
2023-05-12T23:55:41.416Z,7.80
2023-05-12T23:58:10.921Z,8.75
